sensor_id;sensor_type;location;lat;lon;timestamp;temperature;humidity
9542;DHT22;4809;48.224;8.572;2023-07-16T00:00:28;18.40;99.90
9542;DHT22;4809;48.224;8.572;2023-07-16T00:02:54;18.30;99.90
9542;DHT22;4809;48.224;8.572;2023-07-16T00:05:21;18.30;99.90
9542;DHT22;4809;48.224;8.572;2023-07-16T00:07:46;18.30;99.90
9542;DHT22;4809;48.224;8.572;2023-07-16T00:10:12;18.30;99.90
9542;DHT22;4809;48.224;8.572;2023-07-16T00:12:38;18.30;99.90
9542;DHT22;4809;48.224;8.572;2023-07-16T00:15:04;18.30;99.90
9542;DHT22;4809;48.224;8.572;2023-07-16T00:17:31;18.30;99.90
9542;DHT22;4809;48.224;8.572;2023-07-16T00:19:58;18.30;99.90
9542;DHT22;4809;48.224;8.572;2023-07-16T00:22:23;18.30;99.90
9542;DHT22;4809;48.224;8.572;2023-07-16T00:24:49;18.40;99.90
9542;DHT22;4809;48.224;8.572;2023-07-16T00:27:15;18.50;99.90
9542;DHT22;4809;48.224;8.572;2023-07-16T00:29:40;18.60;99.90
9542;DHT22;4809;48.224;8.572;2023-07-16T00:32:06;18.60;99.90
9542;DHT22;4809;48.224;8.572;2023-07-16T00:34:32;18.60;99.90
9542;DHT22;4809;48.224;8.572;2023-07-16T00:36:57;18.70;99.90
9542;DHT22;4809;48.224;8.572;2023-07-16T00:39:28;18.70;99.90
9542;DHT22;4809;48.224;8.572;2023-07-16T00:41:53;18.70;99.90
9542;DHT22;4809;48.224;8.572;2023-07-16T00:44:19;18.70;99.90
9542;DHT22;4809;48.224;8.572;2023-07-16T00:46:45;18.70;99.90
9542;DHT22;4809;48.224;8.572;2023-07-16T00:49:10;18.60;99.90
9542;DHT22;4809;48.224;8.572;2023-07-16T00:51:36;18.50;99.90
9542;DHT22;4809;48.224;8.572;2023-07-16T00:54:02;18.50;99.90
9542;DHT22;4809;48.224;8.572;2023-07-16T00:56:28;18.50;99.90
9542;DHT22;4809;48.224;8.572;2023-07-16T00:58:54;18.40;99.90
9542;DHT22;4809;48.224;8.572;2023-07-16T01:01:20;18.40;99.90
9542;DHT22;4809;48.224;8.572;2023-07-16T01:03:46;18.40;99.90
9542;DHT22;4809;48.224;8.572;2023-07-16T01:06:29;18.30;99.90
9542;DHT22;4809;48.224;8.572;2023-07-16T01:09:17;18.20;99.90
9542;DHT22;4809;48.224;8.572;2023-07-16T01:11:44;18.20;99.90
9542;DHT22;4809;48.224;8.572;2023-07-16T01:14:10;18.10;99.90
9542;DHT22;4809;48.224;8.572;2023-07-16T01:16:37;18.10;99.90
9542;DHT22;4809;48.224;8.572;2023-07-16T01:19:03;18.00;99.90
9542;DHT22;4809;48.224;8.572;2023-07-16T01:22:02;18.00;99.90
9542;DHT22;4809;48.224;8.572;2023-07-16T01:30:09;18.00;99.90
9542;DHT22;4809;48.224;8.572;2023-07-16T01:32:37;17.90;99.90
9542;DHT22;4809;48.224;8.572;2023-07-16T01:35:05;17.90;99.90
9542;DHT22;4809;48.224;8.572;2023-07-16T01:37:31;17.80;99.90
9542;DHT22;4809;48.224;8.572;2023-07-16T01:39:57;17.80;99.90
9542;DHT22;4809;48.224;8.572;2023-07-16T01:42:23;17.90;99.90
9542;DHT22;4809;48.224;8.572;2023-07-16T01:44:48;17.90;99.90
9542;DHT22;4809;48.224;8.572;2023-07-16T01:50:09;18.00;99.90
9542;DHT22;4809;48.224;8.572;2023-07-16T01:52:34;18.00;99.90
9542;DHT22;4809;48.224;8.572;2023-07-16T01:55:00;18.00;99.90
9542;DHT22;4809;48.224;8.572;2023-07-16T01:57:25;18.00;99.90
9542;DHT22;4809;48.224;8.572;2023-07-16T01:59:51;18.00;99.90
9542;DHT22;4809;48.224;8.572;2023-07-16T02:02:17;18.00;99.90
9542;DHT22;4809;48.224;8.572;2023-07-16T02:04:42;17.90;99.90
9542;DHT22;4809;48.224;8.572;2023-07-16T02:07:08;17.80;99.90
9542;DHT22;4809;48.224;8.572;2023-07-16T02:09:34;17.80;99.90
9542;DHT22;4809;48.224;8.572;2023-07-16T02:12:00;17.80;99.90
9542;DHT22;4809;48.224;8.572;2023-07-16T02:14:26;17.70;99.90
9542;DHT22;4809;48.224;8.572;2023-07-16T02:16:51;17.70;99.90
9542;DHT22;4809;48.224;8.572;2023-07-16T02:19:17;17.70;99.90
9542;DHT22;4809;48.224;8.572;2023-07-16T02:21:43;17.60;99.90
9542;DHT22;4809;48.224;8.572;2023-07-16T02:24:08;17.50;99.90
9542;DHT22;4809;48.224;8.572;2023-07-16T02:26:34;17.40;99.90
9542;DHT22;4809;48.224;8.572;2023-07-16T02:29:00;17.40;99.90
9542;DHT22;4809;48.224;8.572;2023-07-16T02:31:25;17.30;99.90
9542;DHT22;4809;48.224;8.572;2023-07-16T02:33:51;17.30;99.90
9542;DHT22;4809;48.224;8.572;2023-07-16T02:36:17;17.30;99.90
9542;DHT22;4809;48.224;8.572;2023-07-16T02:38:42;17.20;99.90
9542;DHT22;4809;48.224;8.572;2023-07-16T02:41:08;17.00;99.90
9542;DHT22;4809;48.224;8.572;2023-07-16T02:43:34;17.00;99.90
9542;DHT22;4809;48.224;8.572;2023-07-16T02:45:59;16.90;99.90
9542;DHT22;4809;48.224;8.572;2023-07-16T02:48:25;16.80;99.90
9542;DHT22;4809;48.224;8.572;2023-07-16T02:50:51;16.80;99.90
9542;DHT22;4809;48.224;8.572;2023-07-16T02:53:16;16.80;99.90
9542;DHT22;4809;48.224;8.572;2023-07-16T02:55:42;16.80;99.90
9542;DHT22;4809;48.224;8.572;2023-07-16T02:58:10;16.80;99.90
9542;DHT22;4809;48.224;8.572;2023-07-16T03:00:36;16.80;99.90
9542;DHT22;4809;48.224;8.572;2023-07-16T03:03:01;16.90;99.90
9542;DHT22;4809;48.224;8.572;2023-07-16T03:05:28;17.00;99.90
9542;DHT22;4809;48.224;8.572;2023-07-16T03:07:53;17.00;99.90
9542;DHT22;4809;48.224;8.572;2023-07-16T03:10:20;16.90;99.90
9542;DHT22;4809;48.224;8.572;2023-07-16T03:12:46;17.00;99.90
9542;DHT22;4809;48.224;8.572;2023-07-16T03:15:12;16.90;99.90
9542;DHT22;4809;48.224;8.572;2023-07-16T03:17:37;16.90;99.90
9542;DHT22;4809;48.224;8.572;2023-07-16T03:20:03;16.80;99.90
9542;DHT22;4809;48.224;8.572;2023-07-16T03:22:30;16.90;99.90
9542;DHT22;4809;48.224;8.572;2023-07-16T03:24:56;16.80;99.90
9542;DHT22;4809;48.224;8.572;2023-07-16T03:27:22;16.80;99.90
9542;DHT22;4809;48.224;8.572;2023-07-16T03:29:47;16.80;99.90
9542;DHT22;4809;48.224;8.572;2023-07-16T03:32:13;16.90;99.90
9542;DHT22;4809;48.224;8.572;2023-07-16T03:34:39;16.90;99.90
9542;DHT22;4809;48.224;8.572;2023-07-16T03:37:04;17.00;99.90
9542;DHT22;4809;48.224;8.572;2023-07-16T03:39:30;17.10;99.90
9542;DHT22;4809;48.224;8.572;2023-07-16T03:41:55;17.10;99.90
9542;DHT22;4809;48.224;8.572;2023-07-16T03:44:21;17.10;99.90
9542;DHT22;4809;48.224;8.572;2023-07-16T03:46:47;17.20;99.90
9542;DHT22;4809;48.224;8.572;2023-07-16T03:49:12;17.10;99.90
9542;DHT22;4809;48.224;8.572;2023-07-16T03:51:38;17.10;99.90
9542;DHT22;4809;48.224;8.572;2023-07-16T03:54:03;17.00;99.90
9542;DHT22;4809;48.224;8.572;2023-07-16T03:56:29;17.00;99.90
9542;DHT22;4809;48.224;8.572;2023-07-16T03:58:55;16.90;99.90
9542;DHT22;4809;48.224;8.572;2023-07-16T04:01:20;16.80;99.90
9542;DHT22;4809;48.224;8.572;2023-07-16T04:03:46;16.80;99.90
9542;DHT22;4809;48.224;8.572;2023-07-16T04:06:12;16.90;99.90
9542;DHT22;4809;48.224;8.572;2023-07-16T04:08:38;16.80;99.90
9542;DHT22;4809;48.224;8.572;2023-07-16T04:11:04;16.90;99.90
9542;DHT22;4809;48.224;8.572;2023-07-16T04:13:30;16.80;99.90
9542;DHT22;4809;48.224;8.572;2023-07-16T04:15:56;16.80;99.90
9542;DHT22;4809;48.224;8.572;2023-07-16T04:18:23;16.70;99.90
9542;DHT22;4809;48.224;8.572;2023-07-16T04:20:49;16.70;99.90
9542;DHT22;4809;48.224;8.572;2023-07-16T04:23:14;16.60;99.90
9542;DHT22;4809;48.224;8.572;2023-07-16T04:25:40;16.60;99.90
9542;DHT22;4809;48.224;8.572;2023-07-16T04:28:06;16.50;99.90
9542;DHT22;4809;48.224;8.572;2023-07-16T04:30:32;16.30;99.90
9542;DHT22;4809;48.224;8.572;2023-07-16T04:32:57;16.20;99.90
9542;DHT22;4809;48.224;8.572;2023-07-16T04:35:23;16.20;99.90
9542;DHT22;4809;48.224;8.572;2023-07-16T04:37:49;16.10;99.90
9542;DHT22;4809;48.224;8.572;2023-07-16T04:40:14;16.10;99.90
9542;DHT22;4809;48.224;8.572;2023-07-16T04:42:40;16.10;99.90
9542;DHT22;4809;48.224;8.572;2023-07-16T04:45:06;15.90;99.90
9542;DHT22;4809;48.224;8.572;2023-07-16T04:47:32;15.90;99.90
9542;DHT22;4809;48.224;8.572;2023-07-16T04:50:01;15.90;99.90
9542;DHT22;4809;48.224;8.572;2023-07-16T04:52:26;15.80;99.90
9542;DHT22;4809;48.224;8.572;2023-07-16T04:54:52;15.90;99.90
9542;DHT22;4809;48.224;8.572;2023-07-16T04:57:17;15.90;99.90
9542;DHT22;4809;48.224;8.572;2023-07-16T04:59:43;16.00;99.90
9542;DHT22;4809;48.224;8.572;2023-07-16T05:02:09;16.10;99.90
9542;DHT22;4809;48.224;8.572;2023-07-16T05:04:35;16.20;99.90
9542;DHT22;4809;48.224;8.572;2023-07-16T05:07:01;16.20;99.90
9542;DHT22;4809;48.224;8.572;2023-07-16T05:09:27;16.10;99.90
9542;DHT22;4809;48.224;8.572;2023-07-16T05:11:53;16.20;99.90
9542;DHT22;4809;48.224;8.572;2023-07-16T05:14:19;16.10;99.90
9542;DHT22;4809;48.224;8.572;2023-07-16T05:16:44;16.10;99.90
9542;DHT22;4809;48.224;8.572;2023-07-16T05:19:10;16.10;99.90
9542;DHT22;4809;48.224;8.572;2023-07-16T05:21:36;16.10;99.90
9542;DHT22;4809;48.224;8.572;2023-07-16T05:24:01;16.10;99.90
9542;DHT22;4809;48.224;8.572;2023-07-16T05:26:27;16.20;99.90
9542;DHT22;4809;48.224;8.572;2023-07-16T05:28:53;16.20;99.90
9542;DHT22;4809;48.224;8.572;2023-07-16T05:31:19;16.30;99.90
9542;DHT22;4809;48.224;8.572;2023-07-16T05:33:44;16.30;99.90
9542;DHT22;4809;48.224;8.572;2023-07-16T05:36:10;16.30;99.90
9542;DHT22;4809;48.224;8.572;2023-07-16T05:38:35;16.30;99.90
9542;DHT22;4809;48.224;8.572;2023-07-16T05:41:02;16.20;99.90
9542;DHT22;4809;48.224;8.572;2023-07-16T05:43:28;16.10;99.90
9542;DHT22;4809;48.224;8.572;2023-07-16T05:45:54;16.10;99.90
9542;DHT22;4809;48.224;8.572;2023-07-16T05:48:20;16.10;99.90
9542;DHT22;4809;48.224;8.572;2023-07-16T05:50:45;16.10;99.90
9542;DHT22;4809;48.224;8.572;2023-07-16T05:53:11;16.10;99.90
9542;DHT22;4809;48.224;8.572;2023-07-16T05:55:39;16.20;99.90
9542;DHT22;4809;48.224;8.572;2023-07-16T05:58:05;16.20;99.90
9542;DHT22;4809;48.224;8.572;2023-07-16T06:00:31;16.30;99.90
9542;DHT22;4809;48.224;8.572;2023-07-16T06:02:57;16.40;99.90
9542;DHT22;4809;48.224;8.572;2023-07-16T06:05:23;16.50;99.90
9542;DHT22;4809;48.224;8.572;2023-07-16T06:07:50;16.70;99.90
9542;DHT22;4809;48.224;8.572;2023-07-16T06:10:15;16.80;99.90
9542;DHT22;4809;48.224;8.572;2023-07-16T06:12:41;17.00;99.90
9542;DHT22;4809;48.224;8.572;2023-07-16T06:15:07;17.10;99.90
9542;DHT22;4809;48.224;8.572;2023-07-16T06:17:33;17.30;99.90
9542;DHT22;4809;48.224;8.572;2023-07-16T06:19:59;17.30;99.90
9542;DHT22;4809;48.224;8.572;2023-07-16T06:22:24;17.30;99.90
9542;DHT22;4809;48.224;8.572;2023-07-16T06:24:50;17.30;99.90
9542;DHT22;4809;48.224;8.572;2023-07-16T06:27:15;17.30;99.90
9542;DHT22;4809;48.224;8.572;2023-07-16T06:29:41;17.20;99.90
9542;DHT22;4809;48.224;8.572;2023-07-16T06:32:07;17.10;99.90
9542;DHT22;4809;48.224;8.572;2023-07-16T06:34:33;17.20;99.90
9542;DHT22;4809;48.224;8.572;2023-07-16T06:36:59;17.60;99.90
9542;DHT22;4809;48.224;8.572;2023-07-16T06:39:25;18.00;99.90
9542;DHT22;4809;48.224;8.572;2023-07-16T06:41:51;18.30;99.90
9542;DHT22;4809;48.224;8.572;2023-07-16T06:44:16;18.40;99.90
9542;DHT22;4809;48.224;8.572;2023-07-16T06:46:42;18.40;99.90
9542;DHT22;4809;48.224;8.572;2023-07-16T06:49:08;18.40;99.90
9542;DHT22;4809;48.224;8.572;2023-07-16T06:51:33;18.60;99.90
9542;DHT22;4809;48.224;8.572;2023-07-16T06:53:59;18.60;99.90
9542;DHT22;4809;48.224;8.572;2023-07-16T06:56:25;18.70;99.90
9542;DHT22;4809;48.224;8.572;2023-07-16T06:58:51;18.80;99.90
9542;DHT22;4809;48.224;8.572;2023-07-16T07:01:16;18.90;99.90
9542;DHT22;4809;48.224;8.572;2023-07-16T07:03:42;19.00;99.90
9542;DHT22;4809;48.224;8.572;2023-07-16T07:06:07;19.00;99.90
9542;DHT22;4809;48.224;8.572;2023-07-16T07:08:36;19.00;99.90
9542;DHT22;4809;48.224;8.572;2023-07-16T07:11:02;18.90;99.90
9542;DHT22;4809;48.224;8.572;2023-07-16T07:13:27;18.80;99.90
9542;DHT22;4809;48.224;8.572;2023-07-16T07:15:55;18.80;99.90
9542;DHT22;4809;48.224;8.572;2023-07-16T07:18:20;18.70;99.90
9542;DHT22;4809;48.224;8.572;2023-07-16T07:20:46;18.60;99.90
9542;DHT22;4809;48.224;8.572;2023-07-16T07:23:13;18.60;99.90
9542;DHT22;4809;48.224;8.572;2023-07-16T07:25:39;18.70;99.90
9542;DHT22;4809;48.224;8.572;2023-07-16T07:28:05;18.70;99.90
9542;DHT22;4809;48.224;8.572;2023-07-16T07:30:30;18.80;99.90
9542;DHT22;4809;48.224;8.572;2023-07-16T07:32:56;18.90;99.90
9542;DHT22;4809;48.224;8.572;2023-07-16T07:35:22;19.10;99.90
9542;DHT22;4809;48.224;8.572;2023-07-16T07:37:47;19.40;99.90
9542;DHT22;4809;48.224;8.572;2023-07-16T07:40:13;19.70;99.90
9542;DHT22;4809;48.224;8.572;2023-07-16T07:42:39;19.80;99.90
9542;DHT22;4809;48.224;8.572;2023-07-16T07:45:05;19.90;99.90
9542;DHT22;4809;48.224;8.572;2023-07-16T07:47:30;20.00;99.90
9542;DHT22;4809;48.224;8.572;2023-07-16T07:49:56;20.10;99.90
9542;DHT22;4809;48.224;8.572;2023-07-16T07:52:22;20.10;99.90
9542;DHT22;4809;48.224;8.572;2023-07-16T07:54:47;20.20;99.90
9542;DHT22;4809;48.224;8.572;2023-07-16T07:57:14;20.10;99.90
9542;DHT22;4809;48.224;8.572;2023-07-16T07:59:40;20.20;99.90
9542;DHT22;4809;48.224;8.572;2023-07-16T08:02:06;20.10;99.90
9542;DHT22;4809;48.224;8.572;2023-07-16T08:04:31;20.10;99.90
9542;DHT22;4809;48.224;8.572;2023-07-16T08:06:58;20.10;99.90
9542;DHT22;4809;48.224;8.572;2023-07-16T08:09:25;20.20;99.90
9542;DHT22;4809;48.224;8.572;2023-07-16T08:11:51;20.30;99.90
9542;DHT22;4809;48.224;8.572;2023-07-16T08:14:16;20.80;99.90
9542;DHT22;4809;48.224;8.572;2023-07-16T08:16:42;21.30;99.90
9542;DHT22;4809;48.224;8.572;2023-07-16T08:19:08;21.30;99.90
9542;DHT22;4809;48.224;8.572;2023-07-16T08:21:34;21.20;99.90
9542;DHT22;4809;48.224;8.572;2023-07-16T08:24:01;20.90;99.90
9542;DHT22;4809;48.224;8.572;2023-07-16T08:26:27;20.90;99.90
9542;DHT22;4809;48.224;8.572;2023-07-16T08:28:52;21.00;99.90
9542;DHT22;4809;48.224;8.572;2023-07-16T08:31:18;20.80;99.90
9542;DHT22;4809;48.224;8.572;2023-07-16T08:33:43;20.80;99.90
9542;DHT22;4809;48.224;8.572;2023-07-16T08:36:10;20.80;99.90
9542;DHT22;4809;48.224;8.572;2023-07-16T08:38:35;20.70;99.90
9542;DHT22;4809;48.224;8.572;2023-07-16T08:41:01;20.80;99.90
9542;DHT22;4809;48.224;8.572;2023-07-16T08:43:28;20.80;99.90
9542;DHT22;4809;48.224;8.572;2023-07-16T08:45:55;20.80;99.90
9542;DHT22;4809;48.224;8.572;2023-07-16T08:48:21;20.90;99.90
9542;DHT22;4809;48.224;8.572;2023-07-16T08:50:48;21.00;99.90
9542;DHT22;4809;48.224;8.572;2023-07-16T08:53:18;20.90;99.90
9542;DHT22;4809;48.224;8.572;2023-07-16T08:55:47;20.80;99.90
9542;DHT22;4809;48.224;8.572;2023-07-16T08:58:14;21.20;99.90
9542;DHT22;4809;48.224;8.572;2023-07-16T09:00:46;21.70;99.90
9542;DHT22;4809;48.224;8.572;2023-07-16T09:03:12;22.60;99.90
9542;DHT22;4809;48.224;8.572;2023-07-16T09:05:42;23.30;99.90
9542;DHT22;4809;48.224;8.572;2023-07-16T09:08:09;23.70;99.90
9542;DHT22;4809;48.224;8.572;2023-07-16T09:10:35;23.90;99.90
9542;DHT22;4809;48.224;8.572;2023-07-16T09:13:00;24.40;99.90
9542;DHT22;4809;48.224;8.572;2023-07-16T09:15:28;24.80;99.90
9542;DHT22;4809;48.224;8.572;2023-07-16T09:17:54;25.30;99.90
9542;DHT22;4809;48.224;8.572;2023-07-16T09:20:21;25.60;99.90
9542;DHT22;4809;48.224;8.572;2023-07-16T09:22:49;25.40;99.90
9542;DHT22;4809;48.224;8.572;2023-07-16T09:25:14;24.50;99.90
9542;DHT22;4809;48.224;8.572;2023-07-16T09:27:40;23.50;99.90
9542;DHT22;4809;48.224;8.572;2023-07-16T09:30:06;22.80;99.90
9542;DHT22;4809;48.224;8.572;2023-07-16T09:32:37;22.70;99.90
9542;DHT22;4809;48.224;8.572;2023-07-16T09:35:13;22.70;99.90
9542;DHT22;4809;48.224;8.572;2023-07-16T09:37:39;22.80;99.90
9542;DHT22;4809;48.224;8.572;2023-07-16T09:40:06;23.10;99.90
9542;DHT22;4809;48.224;8.572;2023-07-16T09:42:39;23.50;99.90
9542;DHT22;4809;48.224;8.572;2023-07-16T09:45:18;23.50;99.90
9542;DHT22;4809;48.224;8.572;2023-07-16T09:47:44;23.40;99.90
9542;DHT22;4809;48.224;8.572;2023-07-16T09:50:11;23.50;99.90
9542;DHT22;4809;48.224;8.572;2023-07-16T09:52:37;24.10;99.90
9542;DHT22;4809;48.224;8.572;2023-07-16T09:55:03;24.80;99.90
9542;DHT22;4809;48.224;8.572;2023-07-16T09:57:35;25.60;99.90
9542;DHT22;4809;48.224;8.572;2023-07-16T10:00:05;25.70;99.90
9542;DHT22;4809;48.224;8.572;2023-07-16T10:02:35;25.70;99.90
9542;DHT22;4809;48.224;8.572;2023-07-16T10:05:24;26.00;98.30
9542;DHT22;4809;48.224;8.572;2023-07-16T10:07:53;26.20;97.90
9542;DHT22;4809;48.224;8.572;2023-07-16T10:10:19;25.80;97.60
9542;DHT22;4809;48.224;8.572;2023-07-16T10:13:03;25.30;97.80
9542;DHT22;4809;48.224;8.572;2023-07-16T10:15:29;25.30;99.90
9542;DHT22;4809;48.224;8.572;2023-07-16T10:17:56;25.70;99.30
9542;DHT22;4809;48.224;8.572;2023-07-16T10:20:33;25.90;97.20
9542;DHT22;4809;48.224;8.572;2023-07-16T10:23:09;26.00;98.00
9542;DHT22;4809;48.224;8.572;2023-07-16T10:25:36;26.00;97.60
9542;DHT22;4809;48.224;8.572;2023-07-16T10:28:01;25.60;96.50
9542;DHT22;4809;48.224;8.572;2023-07-16T10:30:27;25.60;96.60
9542;DHT22;4809;48.224;8.572;2023-07-16T10:32:53;25.30;95.60
9542;DHT22;4809;48.224;8.572;2023-07-16T10:35:19;25.10;98.50
9542;DHT22;4809;48.224;8.572;2023-07-16T10:37:44;25.30;97.60
9542;DHT22;4809;48.224;8.572;2023-07-16T10:40:12;25.30;95.30
9542;DHT22;4809;48.224;8.572;2023-07-16T10:42:41;25.70;97.50
9542;DHT22;4809;48.224;8.572;2023-07-16T10:45:08;25.80;95.50
9542;DHT22;4809;48.224;8.572;2023-07-16T10:47:36;25.60;92.80
9542;DHT22;4809;48.224;8.572;2023-07-16T10:50:07;25.50;93.50
9542;DHT22;4809;48.224;8.572;2023-07-16T10:52:34;25.70;95.20
9542;DHT22;4809;48.224;8.572;2023-07-16T10:55:00;26.40;94.40
9542;DHT22;4809;48.224;8.572;2023-07-16T10:57:26;26.70;94.10
9542;DHT22;4809;48.224;8.572;2023-07-16T10:59:54;26.40;92.10
9542;DHT22;4809;48.224;8.572;2023-07-16T11:02:22;26.00;92.70
9542;DHT22;4809;48.224;8.572;2023-07-16T11:04:48;25.80;93.80
9542;DHT22;4809;48.224;8.572;2023-07-16T11:07:15;25.60;92.00
9542;DHT22;4809;48.224;8.572;2023-07-16T11:09:46;25.60;93.00
9542;DHT22;4809;48.224;8.572;2023-07-16T11:12:14;25.50;94.20
9542;DHT22;4809;48.224;8.572;2023-07-16T11:14:47;25.70;93.70
9542;DHT22;4809;48.224;8.572;2023-07-16T11:17:15;25.80;93.80
9542;DHT22;4809;48.224;8.572;2023-07-16T11:19:44;25.60;91.70
9542;DHT22;4809;48.224;8.572;2023-07-16T11:22:10;25.50;93.20
9542;DHT22;4809;48.224;8.572;2023-07-16T11:24:42;25.70;94.00
9542;DHT22;4809;48.224;8.572;2023-07-16T11:27:23;25.90;94.10
9542;DHT22;4809;48.224;8.572;2023-07-16T11:29:52;26.00;93.40
9542;DHT22;4809;48.224;8.572;2023-07-16T11:32:35;26.50;92.40
9542;DHT22;4809;48.224;8.572;2023-07-16T11:35:04;27.10;90.70
9542;DHT22;4809;48.224;8.572;2023-07-16T11:37:32;27.40;92.30
9542;DHT22;4809;48.224;8.572;2023-07-16T11:40:06;27.90;90.50
9542;DHT22;4809;48.224;8.572;2023-07-16T11:42:34;28.20;88.80
9542;DHT22;4809;48.224;8.572;2023-07-16T11:45:00;27.70;85.50
9542;DHT22;4809;48.224;8.572;2023-07-16T11:47:27;27.40;84.70
9542;DHT22;4809;48.224;8.572;2023-07-16T11:49:53;27.50;90.40
9542;DHT22;4809;48.224;8.572;2023-07-16T11:52:29;27.80;88.30
9542;DHT22;4809;48.224;8.572;2023-07-16T11:54:57;28.20;80.20
9542;DHT22;4809;48.224;8.572;2023-07-16T11:57:25;28.40;74.10
9542;DHT22;4809;48.224;8.572;2023-07-16T11:59:50;28.40;76.40
9542;DHT22;4809;48.224;8.572;2023-07-16T12:02:16;28.50;72.10
9542;DHT22;4809;48.224;8.572;2023-07-16T12:04:42;28.40;75.10
9542;DHT22;4809;48.224;8.572;2023-07-16T12:07:08;28.10;72.20
9542;DHT22;4809;48.224;8.572;2023-07-16T12:09:33;27.90;74.00
9542;DHT22;4809;48.224;8.572;2023-07-16T12:12:00;27.70;73.20
9542;DHT22;4809;48.224;8.572;2023-07-16T12:14:26;27.20;80.80
9542;DHT22;4809;48.224;8.572;2023-07-16T12:16:51;27.10;81.00
9542;DHT22;4809;48.224;8.572;2023-07-16T12:19:17;27.40;83.00
9542;DHT22;4809;48.224;8.572;2023-07-16T12:21:43;28.20;77.80
9542;DHT22;4809;48.224;8.572;2023-07-16T12:24:08;28.70;73.10
9542;DHT22;4809;48.224;8.572;2023-07-16T12:26:34;28.90;75.40
9542;DHT22;4809;48.224;8.572;2023-07-16T12:29:00;29.10;77.40
9542;DHT22;4809;48.224;8.572;2023-07-16T12:31:29;29.00;77.50
9542;DHT22;4809;48.224;8.572;2023-07-16T12:33:55;28.60;77.60
9542;DHT22;4809;48.224;8.572;2023-07-16T12:36:20;28.40;76.40
9542;DHT22;4809;48.224;8.572;2023-07-16T12:38:46;28.10;76.20
9542;DHT22;4809;48.224;8.572;2023-07-16T12:41:11;27.80;76.60
9542;DHT22;4809;48.224;8.572;2023-07-16T12:43:37;27.60;75.10
9542;DHT22;4809;48.224;8.572;2023-07-16T12:46:04;27.30;73.20
9542;DHT22;4809;48.224;8.572;2023-07-16T12:48:33;27.50;74.00
9542;DHT22;4809;48.224;8.572;2023-07-16T12:50:59;27.60;76.80
9542;DHT22;4809;48.224;8.572;2023-07-16T12:53:25;27.50;78.20
9542;DHT22;4809;48.224;8.572;2023-07-16T12:55:51;27.50;79.90
9542;DHT22;4809;48.224;8.572;2023-07-16T12:58:17;27.70;81.20
9542;DHT22;4809;48.224;8.572;2023-07-16T13:00:43;28.00;78.30
9542;DHT22;4809;48.224;8.572;2023-07-16T13:03:09;28.70;79.40
9542;DHT22;4809;48.224;8.572;2023-07-16T13:05:40;29.10;76.20
9542;DHT22;4809;48.224;8.572;2023-07-16T13:08:06;29.70;74.50
9542;DHT22;4809;48.224;8.572;2023-07-16T13:10:31;29.70;74.10
9542;DHT22;4809;48.224;8.572;2023-07-16T13:12:57;30.00;72.70
9542;DHT22;4809;48.224;8.572;2023-07-16T13:15:23;30.20;69.60
9542;DHT22;4809;48.224;8.572;2023-07-16T13:17:48;30.60;71.20
9542;DHT22;4809;48.224;8.572;2023-07-16T13:20:14;30.90;68.50
9542;DHT22;4809;48.224;8.572;2023-07-16T13:22:40;30.70;65.50
9542;DHT22;4809;48.224;8.572;2023-07-16T13:25:06;30.90;64.10
9542;DHT22;4809;48.224;8.572;2023-07-16T13:27:31;30.90;62.20
9542;DHT22;4809;48.224;8.572;2023-07-16T13:29:57;30.30;61.50
9542;DHT22;4809;48.224;8.572;2023-07-16T13:32:23;29.90;61.20
9542;DHT22;4809;48.224;8.572;2023-07-16T13:34:49;29.80;60.80
9542;DHT22;4809;48.224;8.572;2023-07-16T13:37:14;29.60;61.50
9542;DHT22;4809;48.224;8.572;2023-07-16T13:39:40;29.50;65.40
9542;DHT22;4809;48.224;8.572;2023-07-16T13:42:06;29.80;65.30
9542;DHT22;4809;48.224;8.572;2023-07-16T13:44:33;29.60;65.10
9542;DHT22;4809;48.224;8.572;2023-07-16T13:46:58;29.20;64.80
9542;DHT22;4809;48.224;8.572;2023-07-16T13:49:24;28.90;64.80
9542;DHT22;4809;48.224;8.572;2023-07-16T13:51:50;28.60;67.00
9542;DHT22;4809;48.224;8.572;2023-07-16T13:54:15;28.30;64.90
9542;DHT22;4809;48.224;8.572;2023-07-16T13:56:41;28.40;66.40
9542;DHT22;4809;48.224;8.572;2023-07-16T13:59:07;28.30;66.90
9542;DHT22;4809;48.224;8.572;2023-07-16T14:01:32;28.00;67.50
9542;DHT22;4809;48.224;8.572;2023-07-16T14:03:58;28.00;68.00
9542;DHT22;4809;48.224;8.572;2023-07-16T14:06:23;28.00;67.00
9542;DHT22;4809;48.224;8.572;2023-07-16T14:08:49;28.00;68.50
9542;DHT22;4809;48.224;8.572;2023-07-16T14:11:15;28.10;68.70
9542;DHT22;4809;48.224;8.572;2023-07-16T14:13:44;28.20;66.10
9542;DHT22;4809;48.224;8.572;2023-07-16T14:16:09;28.20;63.70
9542;DHT22;4809;48.224;8.572;2023-07-16T14:18:35;28.20;65.80
9542;DHT22;4809;48.224;8.572;2023-07-16T14:21:01;28.20;66.00
9542;DHT22;4809;48.224;8.572;2023-07-16T14:23:28;28.10;67.10
9542;DHT22;4809;48.224;8.572;2023-07-16T14:25:53;28.10;67.40
9542;DHT22;4809;48.224;8.572;2023-07-16T14:28:19;27.90;67.10
9542;DHT22;4809;48.224;8.572;2023-07-16T14:30:44;27.60;68.90
9542;DHT22;4809;48.224;8.572;2023-07-16T14:33:10;27.50;68.50
9542;DHT22;4809;48.224;8.572;2023-07-16T14:35:36;27.40;68.50
9542;DHT22;4809;48.224;8.572;2023-07-16T14:38:01;27.40;68.30
9542;DHT22;4809;48.224;8.572;2023-07-16T14:40:27;27.30;67.50
9542;DHT22;4809;48.224;8.572;2023-07-16T14:42:53;27.40;69.20
9542;DHT22;4809;48.224;8.572;2023-07-16T14:45:18;27.50;68.30
9542;DHT22;4809;48.224;8.572;2023-07-16T14:47:44;27.70;67.80
9542;DHT22;4809;48.224;8.572;2023-07-16T14:50:09;27.70;68.80
9542;DHT22;4809;48.224;8.572;2023-07-16T14:52:35;27.40;68.10
9542;DHT22;4809;48.224;8.572;2023-07-16T14:55:02;27.30;68.40
9542;DHT22;4809;48.224;8.572;2023-07-16T14:57:30;27.30;68.50
9542;DHT22;4809;48.224;8.572;2023-07-16T14:59:55;27.30;68.70
9542;DHT22;4809;48.224;8.572;2023-07-16T15:02:21;27.30;69.20
9542;DHT22;4809;48.224;8.572;2023-07-16T15:04:47;27.40;68.80
9542;DHT22;4809;48.224;8.572;2023-07-16T15:07:13;27.50;69.70
9542;DHT22;4809;48.224;8.572;2023-07-16T15:09:38;27.60;69.70
9542;DHT22;4809;48.224;8.572;2023-07-16T15:12:05;27.50;71.30
9542;DHT22;4809;48.224;8.572;2023-07-16T15:14:31;27.60;69.30
9542;DHT22;4809;48.224;8.572;2023-07-16T15:16:58;27.60;70.00
9542;DHT22;4809;48.224;8.572;2023-07-16T15:19:24;27.60;68.80
9542;DHT22;4809;48.224;8.572;2023-07-16T15:21:49;27.40;67.80
9542;DHT22;4809;48.224;8.572;2023-07-16T15:24:15;27.40;68.60
9542;DHT22;4809;48.224;8.572;2023-07-16T15:26:40;27.20;67.90
9542;DHT22;4809;48.224;8.572;2023-07-16T15:29:06;27.10;68.90
9542;DHT22;4809;48.224;8.572;2023-07-16T15:31:32;27.00;68.10
9542;DHT22;4809;48.224;8.572;2023-07-16T15:33:58;26.90;68.60
9542;DHT22;4809;48.224;8.572;2023-07-16T15:36:25;26.90;70.20
9542;DHT22;4809;48.224;8.572;2023-07-16T15:38:51;26.60;70.00
9542;DHT22;4809;48.224;8.572;2023-07-16T15:41:19;26.40;70.40
9542;DHT22;4809;48.224;8.572;2023-07-16T15:43:52;26.30;70.50
9542;DHT22;4809;48.224;8.572;2023-07-16T15:46:18;26.30;70.90
9542;DHT22;4809;48.224;8.572;2023-07-16T15:48:44;26.40;71.70
9542;DHT22;4809;48.224;8.572;2023-07-16T15:51:14;26.40;71.30
9542;DHT22;4809;48.224;8.572;2023-07-16T15:53:41;26.30;72.10
9542;DHT22;4809;48.224;8.572;2023-07-16T15:56:09;26.20;69.90
9542;DHT22;4809;48.224;8.572;2023-07-16T15:58:35;26.20;72.20
9542;DHT22;4809;48.224;8.572;2023-07-16T16:01:01;26.30;72.20
9542;DHT22;4809;48.224;8.572;2023-07-16T16:03:27;26.40;71.30
9542;DHT22;4809;48.224;8.572;2023-07-16T16:05:54;26.40;71.50